createdAt,value
2018-02-10T00:00:27.977Z,37.50
2018-02-10T00:02:56.542Z,39.30
2018-02-10T00:05:24.138Z,34.97
2018-02-10T00:07:51.680Z,31.90
2018-02-10T00:10:19.297Z,33.10
2018-02-10T00:12:46.816Z,34.50
2018-02-10T00:15:14.363Z,34.80
2018-02-10T00:17:41.968Z,35.93
2018-02-10T00:20:09.546Z,32.30
2018-02-10T00:22:37.045Z,31.87
2018-02-10T00:25:04.613Z,35.57
2018-02-10T00:27:33.751Z,32.50
2018-02-10T00:30:01.353Z,35.17
2018-02-10T00:32:28.930Z,33.00
2018-02-10T00:34:56.448Z,30.73
2018-02-10T00:37:24.169Z,31.63
2018-02-10T00:39:51.696Z,31.00
2018-02-10T00:42:19.240Z,33.87
2018-02-10T00:44:46.754Z,31.77
2018-02-10T00:47:14.459Z,31.67
2018-02-10T00:49:42.023Z,30.10
2018-02-10T00:52:09.620Z,31.20
2018-02-10T00:54:37.174Z,35.57
2018-02-10T00:57:04.751Z,34.50
2018-02-10T00:59:32.311Z,35.30
2018-02-10T01:01:59.909Z,34.70
2018-02-10T01:04:27.478Z,30.50
2018-02-10T01:06:55.028Z,32.73
2018-02-10T01:09:22.569Z,35.07
2018-02-10T01:11:50.155Z,35.20
2018-02-10T01:14:18.459Z,34.53
2018-02-10T01:16:46.007Z,30.60
2018-02-10T01:19:14.309Z,34.70
2018-02-10T01:21:41.851Z,31.63
2018-02-10T01:24:09.427Z,35.43
2018-02-10T01:26:37.038Z,32.37
2018-02-10T01:29:04.765Z,35.50
2018-02-10T01:31:32.403Z,32.13
2018-02-10T01:34:00.034Z,34.07
2018-02-10T01:36:27.662Z,32.73
2018-02-10T01:38:55.214Z,31.20
2018-02-10T01:41:22.871Z,34.80
2018-02-10T01:43:51.216Z,33.53
2018-02-10T01:46:18.752Z,34.63
2018-02-10T01:48:46.384Z,34.20
2018-02-10T01:51:13.904Z,32.70
2018-02-10T01:53:41.456Z,32.87
2018-02-10T01:56:09.183Z,31.50
2018-02-10T01:58:36.779Z,30.73
2018-02-10T02:01:04.396Z,31.40
2018-02-10T02:03:31.967Z,32.83
2018-02-10T02:05:59.491Z,31.87
2018-02-10T02:08:27.016Z,31.97
2018-02-10T02:10:54.578Z,33.70
2018-02-10T02:13:22.145Z,31.63
2018-02-10T02:15:49.671Z,30.83
2018-02-10T02:18:17.194Z,31.83
2018-02-10T02:20:44.715Z,30.43
2018-02-10T02:23:12.242Z,29.77
2018-02-10T02:25:39.828Z,32.27
2018-02-10T02:28:07.477Z,32.37
2018-02-10T02:30:35.019Z,30.63
2018-02-10T02:33:02.607Z,29.23
2018-02-10T02:35:30.161Z,31.83
2018-02-10T02:37:58.515Z,30.57
2018-02-10T02:40:26.059Z,29.93
2018-02-10T02:42:53.599Z,28.60
2018-02-10T02:45:21.941Z,28.57
2018-02-10T02:47:49.582Z,29.27
2018-02-10T02:50:17.937Z,30.17
2018-02-10T02:52:45.507Z,30.37
2018-02-10T02:55:13.206Z,35.37
2018-02-10T02:57:41.525Z,32.53
2018-02-10T03:00:09.031Z,30.03
2018-02-10T03:02:36.587Z,28.97
2018-02-10T03:05:04.110Z,30.77
2018-02-10T03:07:32.441Z,31.40
2018-02-10T03:10:00.024Z,27.63
2018-02-10T03:12:27.580Z,29.73
2018-02-10T03:14:55.097Z,30.10
2018-02-10T03:17:22.834Z,30.97
2018-02-10T03:19:50.436Z,31.33
2018-02-10T03:22:18.119Z,30.33
2018-02-10T03:24:46.543Z,31.27
2018-02-10T03:27:14.862Z,33.73
2018-02-10T03:29:42.434Z,29.93
2018-02-10T03:32:10.224Z,30.13
2018-02-10T03:34:37.788Z,30.30
2018-02-10T03:37:05.337Z,30.70
2018-02-10T03:39:32.875Z,29.47
2018-02-10T03:42:00.421Z,28.03
2018-02-10T03:44:28.072Z,28.63
2018-02-10T03:46:55.608Z,30.33
2018-02-10T03:49:23.914Z,29.37
2018-02-10T03:51:51.483Z,29.10
2018-02-10T03:54:19.801Z,29.60
2018-02-10T03:56:47.365Z,28.07
2018-02-10T03:59:14.983Z,30.67
2018-02-10T04:01:42.637Z,28.27
2018-02-10T04:04:10.234Z,29.23
2018-02-10T04:06:37.765Z,29.20
2018-02-10T04:09:05.312Z,28.73
2018-02-10T04:11:32.860Z,30.53
2018-02-10T04:14:00.400Z,30.37
2018-02-10T04:16:28.754Z,31.93
2018-02-10T04:18:56.269Z,32.37
2018-02-10T04:21:23.851Z,29.13
2018-02-10T04:23:51.395Z,30.90
2018-02-10T04:26:19.007Z,29.73
2018-02-10T04:28:46.563Z,28.90
2018-02-10T04:31:14.911Z,30.33
2018-02-10T04:33:42.423Z,30.67
2018-02-10T04:36:10.077Z,30.47
2018-02-10T04:38:37.625Z,31.40
2018-02-10T04:41:05.195Z,32.83
2018-02-10T04:43:32.818Z,31.03
2018-02-10T04:46:00.381Z,28.60
2018-02-10T04:48:27.911Z,34.30
2018-02-10T04:50:55.529Z,31.47
2018-02-10T04:53:23.122Z,32.30
2018-02-10T04:55:50.772Z,30.87
2018-02-10T04:58:18.319Z,30.20
2018-02-10T05:00:45.844Z,30.23
2018-02-10T05:03:13.522Z,30.30
2018-02-10T05:05:41.824Z,30.67
2018-02-10T05:08:10.127Z,32.47
2018-02-10T05:10:37.702Z,30.70
2018-02-10T05:13:05.270Z,28.50
2018-02-10T05:15:32.871Z,28.83
2018-02-10T05:18:00.435Z,28.67
2018-02-10T05:20:27.968Z,28.90
2018-02-10T05:22:56.272Z,29.27
2018-02-10T05:25:23.829Z,30.70
2018-02-10T05:27:52.160Z,31.23
2018-02-10T05:30:19.756Z,32.67
2018-02-10T05:32:47.309Z,30.53
2018-02-10T05:35:14.936Z,31.20
2018-02-10T05:37:43.254Z,30.93
2018-02-10T05:40:10.803Z,33.20
2018-02-10T05:42:39.178Z,29.17
2018-02-10T05:45:07.512Z,29.33
2018-02-10T05:47:35.033Z,30.83
2018-02-10T05:50:02.617Z,28.07
2018-02-10T05:52:30.996Z,28.47
2018-02-10T05:54:58.548Z,31.13
2018-02-10T05:57:26.139Z,29.90
2018-02-10T05:59:53.754Z,30.97
2018-02-10T06:02:21.275Z,29.57
2018-02-10T06:04:48.835Z,29.83
2018-02-10T06:07:16.379Z,30.00
2018-02-10T06:09:43.940Z,28.23
2018-02-10T06:12:11.512Z,29.67
2018-02-10T06:14:39.056Z,31.50
2018-02-10T06:17:07.458Z,29.60
2018-02-10T06:19:35.941Z,27.90
2018-02-10T06:22:03.512Z,29.13
2018-02-10T06:24:31.829Z,32.63
2018-02-10T06:26:59.372Z,33.80
2018-02-10T06:29:27.772Z,30.07
2018-02-10T06:31:56.064Z,30.77
2018-02-10T06:34:24.388Z,28.87
2018-02-10T06:36:51.903Z,29.70
2018-02-10T06:39:19.458Z,30.23
2018-02-10T06:41:47.056Z,27.93
2018-02-10T06:44:14.614Z,29.20
2018-02-10T06:46:42.199Z,31.03
2018-02-10T06:49:09.760Z,30.83
2018-02-10T06:51:38.108Z,30.10
2018-02-10T06:54:05.717Z,30.70
2018-02-10T06:56:33.356Z,28.70
2018-02-10T06:59:01.024Z,28.87
2018-02-10T07:01:28.565Z,30.07
2018-02-10T07:03:56.939Z,32.00
2018-02-10T07:06:24.506Z,30.67
2018-02-10T07:08:52.050Z,30.53
2018-02-10T07:11:19.684Z,26.73
2018-02-10T07:13:47.354Z,27.17
2018-02-10T07:16:15.647Z,28.27
2018-02-10T07:18:43.240Z,28.23
2018-02-10T07:21:10.799Z,26.53
2018-02-10T07:23:38.384Z,27.87
2018-02-10T07:26:05.926Z,28.17
2018-02-10T07:28:33.476Z,27.17
2018-02-10T07:31:01.059Z,29.37
2018-02-10T07:33:28.751Z,28.73
2018-02-10T07:35:57.127Z,28.80
2018-02-10T07:38:25.420Z,27.10
2018-02-10T07:40:53.729Z,27.33
2018-02-10T07:43:22.012Z,28.13
2018-02-10T07:45:50.325Z,29.13
2018-02-10T07:48:17.950Z,30.30
2018-02-10T07:50:45.548Z,30.37
2018-02-10T07:53:13.855Z,30.83
2018-02-10T07:55:41.397Z,30.77
2018-02-10T07:58:09.927Z,30.53
2018-02-10T08:00:37.567Z,29.60
2018-02-10T08:03:05.127Z,33.00
2018-02-10T08:05:33.431Z,30.30
2018-02-10T08:08:01.784Z,33.00
2018-02-10T08:10:30.041Z,32.77
2018-02-10T08:12:57.597Z,30.53
2018-02-10T08:15:25.136Z,34.33
2018-02-10T08:17:52.664Z,30.17
2018-02-10T08:20:20.212Z,35.03
2018-02-10T08:22:48.597Z,35.70
2018-02-10T08:25:16.910Z,31.60
2018-02-10T08:27:44.528Z,30.73
2018-02-10T08:30:12.075Z,34.47
2018-02-10T08:32:39.620Z,31.27
2018-02-10T08:35:07.164Z,31.43
2018-02-10T08:37:34.735Z,34.23
2018-02-10T08:40:03.060Z,31.77
2018-02-10T08:42:30.601Z,31.93
2018-02-10T08:44:58.953Z,29.93
2018-02-10T08:47:26.506Z,29.50
2018-02-10T08:49:54.049Z,30.67
2018-02-10T08:52:22.350Z,42.43
2018-02-10T08:54:49.971Z,32.17
2018-02-10T08:57:17.567Z,29.93
2018-02-10T08:59:45.893Z,34.90
2018-02-10T09:02:13.435Z,28.87
2018-02-10T09:04:41.723Z,30.40
2018-02-10T09:07:10.007Z,27.30
2018-02-10T09:09:37.608Z,28.20
2018-02-10T09:12:05.174Z,31.83
2018-02-10T09:14:32.933Z,30.00
2018-02-10T09:17:00.551Z,31.90
2018-02-10T09:19:28.108Z,29.20
2018-02-10T09:21:55.663Z,32.43
2018-02-10T09:24:24.040Z,26.90
2018-02-10T09:26:52.436Z,29.13
2018-02-10T09:29:20.725Z,31.20
2018-02-10T09:31:49.042Z,28.43
2018-02-10T09:34:16.555Z,27.73
2018-02-10T09:36:44.095Z,29.67
2018-02-10T09:39:11.663Z,27.83
2018-02-10T09:41:39.198Z,28.67
2018-02-10T09:44:07.509Z,30.50
2018-02-10T09:46:35.172Z,29.37
2018-02-10T09:49:02.698Z,29.70
2018-02-10T09:51:30.247Z,25.23
2018-02-10T09:53:57.796Z,25.87
2018-02-10T09:56:25.324Z,28.57
2018-02-10T09:58:52.859Z,26.40
2018-02-10T10:01:20.391Z,27.53
2018-02-10T10:03:48.721Z,28.87
2018-02-10T10:06:16.302Z,25.33
2018-02-10T10:08:43.857Z,26.87
2018-02-10T10:11:11.415Z,28.17
2018-02-10T10:13:39.076Z,25.67
2018-02-10T10:16:07.402Z,26.30
2018-02-10T10:18:34.956Z,26.93
2018-02-10T10:21:02.482Z,26.30
2018-02-10T10:23:30.013Z,25.93
2018-02-10T10:25:57.514Z,25.67
2018-02-10T10:28:25.046Z,26.27
2018-02-10T10:30:52.644Z,24.13
2018-02-10T10:33:20.213Z,24.10
2018-02-10T10:35:47.780Z,25.93
2018-02-10T10:38:15.357Z,27.17
2018-02-10T10:40:42.878Z,22.57
2018-02-10T10:43:11.248Z,23.73
2018-02-10T10:45:38.797Z,24.77
2018-02-10T10:48:06.356Z,24.20
2018-02-10T10:50:33.870Z,25.53
2018-02-10T10:53:01.411Z,25.47
2018-02-10T10:55:28.918Z,24.63
2018-02-10T10:57:56.446Z,24.43
2018-02-10T11:00:24.891Z,24.03
2018-02-10T11:02:53.529Z,26.23
2018-02-10T11:05:21.060Z,23.73
2018-02-10T11:07:49.428Z,24.27
2018-02-10T11:10:16.927Z,25.67
2018-02-10T11:12:44.423Z,22.77
2018-02-10T11:15:11.950Z,23.97
2018-02-10T11:17:39.514Z,21.60
2018-02-10T11:20:07.081Z,19.23
2018-02-10T11:22:35.489Z,20.53
2018-02-10T11:25:03.867Z,20.00
2018-02-10T11:27:31.403Z,20.13
2018-02-10T11:29:59.094Z,19.40
2018-02-10T11:32:29.692Z,17.83
2018-02-10T11:34:58.008Z,15.83
2018-02-10T11:37:25.547Z,16.90
2018-02-10T11:39:53.833Z,17.07
2018-02-10T11:42:22.212Z,15.80
2018-02-10T11:44:49.821Z,15.27
2018-02-10T11:47:17.381Z,15.00
2018-02-10T11:49:45.662Z,14.83
2018-02-10T11:52:13.950Z,14.07
2018-02-10T11:54:42.333Z,14.80
2018-02-10T11:57:10.660Z,14.60
2018-02-10T11:59:38.194Z,15.03
2018-02-10T12:02:06.603Z,15.27
2018-02-10T12:04:34.153Z,15.83
2018-02-10T12:07:02.305Z,15.00
2018-02-10T12:09:29.868Z,15.40
2018-02-10T12:11:57.426Z,15.43
2018-02-10T12:14:24.980Z,15.10
2018-02-10T12:16:53.281Z,13.97
2018-02-10T12:19:20.906Z,14.17
2018-02-10T12:21:48.541Z,14.60
2018-02-10T12:24:16.110Z,14.03
2018-02-10T12:26:43.692Z,13.20
2018-02-10T12:29:11.261Z,14.57
2018-02-10T12:31:38.854Z,13.60
2018-02-10T12:34:06.379Z,13.67
2018-02-10T12:36:34.643Z,14.57
2018-02-10T12:39:03.022Z,14.20
2018-02-10T12:41:31.392Z,15.17
2018-02-10T12:43:58.948Z,15.00
2018-02-10T12:46:26.606Z,14.83
2018-02-10T12:48:59.900Z,15.37
2018-02-10T12:51:28.213Z,13.50
2018-02-10T12:53:55.764Z,13.30
2018-02-10T12:56:23.335Z,12.17
2018-02-10T12:58:51.896Z,11.93
2018-02-10T13:01:19.528Z,11.70
2018-02-10T13:03:47.069Z,10.77
2018-02-10T13:06:15.446Z,10.17
2018-02-10T13:08:43.061Z,9.63
2018-02-10T13:11:10.651Z,9.87
2018-02-10T13:13:38.217Z,9.43
2018-02-10T13:16:05.757Z,10.17
2018-02-10T13:18:33.379Z,10.97
2018-02-10T13:21:00.966Z,9.17
2018-02-10T13:23:28.492Z,10.30
2018-02-10T13:25:56.036Z,9.83
2018-02-10T13:28:24.427Z,10.80
2018-02-10T13:30:52.784Z,10.77
2018-02-10T13:33:20.402Z,13.57
2018-02-10T13:35:47.953Z,11.90
2018-02-10T13:38:16.287Z,13.57
2018-02-10T13:40:44.648Z,12.70
2018-02-10T13:43:12.321Z,13.60
2018-02-10T13:45:40.622Z,13.73
2018-02-10T13:48:08.225Z,14.60
2018-02-10T13:50:36.480Z,13.53
2018-02-10T13:53:04.057Z,13.23
2018-02-10T13:55:31.586Z,19.43
2018-02-10T13:57:59.171Z,15.33
2018-02-10T14:00:27.562Z,15.83
2018-02-10T14:02:56.359Z,14.37
2018-02-10T14:05:23.878Z,14.23
2018-02-10T14:07:51.420Z,16.50
2018-02-10T14:10:19.744Z,17.63
2018-02-10T14:12:47.313Z,15.93
2018-02-10T14:15:14.870Z,17.57
2018-02-10T14:17:42.438Z,17.10
2018-02-10T14:20:10.808Z,18.83
2018-02-10T14:22:39.124Z,19.77
2018-02-10T14:25:06.649Z,17.03
2018-02-10T14:27:34.334Z,18.00
2018-02-10T14:30:02.727Z,18.17
2018-02-10T14:32:31.037Z,17.60
2018-02-10T14:34:59.321Z,17.67
2018-02-10T14:37:27.684Z,17.23
2018-02-10T14:39:55.259Z,16.27
2018-02-10T14:42:22.811Z,17.60
2018-02-10T14:44:50.438Z,18.47
2018-02-10T14:47:18.821Z,15.93
2018-02-10T14:49:46.351Z,16.90
2018-02-10T14:52:14.001Z,15.20
2018-02-10T14:54:41.552Z,14.37
2018-02-10T14:57:09.087Z,16.00
2018-02-10T14:59:36.642Z,14.73
2018-02-10T15:02:04.171Z,15.17
2018-02-10T15:04:31.730Z,15.10
2018-02-10T15:07:00.028Z,14.00
2018-02-10T15:09:27.596Z,14.63
2018-02-10T15:11:55.127Z,14.83
2018-02-10T15:14:22.709Z,13.77
2018-02-10T15:16:50.239Z,14.33
2018-02-10T15:19:17.761Z,15.53
2018-02-10T15:21:45.282Z,13.27
2018-02-10T15:24:12.926Z,15.37
2018-02-10T15:26:40.489Z,14.90
2018-02-10T15:29:08.824Z,16.40
2018-02-10T15:31:48.362Z,16.13
2018-02-10T15:34:28.518Z,16.10
2018-02-10T15:36:56.038Z,16.43
2018-02-10T15:39:23.650Z,14.80
2018-02-10T15:41:51.974Z,14.37
2018-02-10T15:44:19.513Z,15.53
2018-02-10T15:46:47.792Z,16.97
2018-02-10T15:49:16.168Z,17.90
2018-02-10T15:51:43.743Z,16.50
2018-02-10T15:54:11.260Z,16.90
2018-02-10T15:56:38.883Z,18.13
2018-02-10T15:59:06.445Z,16.90
2018-02-10T16:01:33.992Z,17.90
2018-02-10T16:04:01.527Z,17.40
2018-02-10T16:06:29.833Z,18.30
2018-02-10T16:08:57.470Z,16.23
2018-02-10T16:11:25.021Z,18.13
2018-02-10T16:13:52.574Z,18.67
2018-02-10T16:16:20.139Z,16.73
2018-02-10T16:18:47.739Z,15.97
2018-02-10T16:21:15.333Z,18.03
2018-02-10T16:23:42.877Z,15.70
2018-02-10T16:26:10.435Z,17.67
2018-02-10T16:28:38.006Z,16.13
2018-02-10T16:31:05.527Z,17.57
2018-02-10T16:33:33.835Z,16.07
2018-02-10T16:36:01.498Z,17.40
2018-02-10T16:38:29.106Z,16.10
2018-02-10T16:40:56.676Z,17.97
2018-02-10T16:43:24.204Z,16.97
2018-02-10T16:45:51.803Z,16.60
2018-02-10T16:48:19.403Z,16.10
2018-02-10T16:50:46.989Z,17.90
2018-02-10T16:53:14.581Z,15.10
2018-02-10T16:55:42.122Z,15.27
2018-02-10T16:58:09.677Z,16.87
2018-02-10T17:00:37.284Z,16.63
2018-02-10T17:03:04.881Z,17.70
2018-02-10T17:05:32.510Z,15.00
2018-02-10T17:08:00.047Z,16.33
2018-02-10T17:10:28.360Z,16.13
2018-02-10T17:12:55.907Z,15.77
2018-02-10T17:15:24.281Z,15.23
2018-02-10T17:17:51.772Z,15.23
2018-02-10T17:20:20.121Z,17.07
2018-02-10T17:22:47.637Z,19.87
2018-02-10T17:25:15.946Z,19.33
2018-02-10T17:27:43.477Z,21.60
2018-02-10T17:30:11.037Z,20.40
2018-02-10T17:32:38.572Z,19.73
2018-02-10T17:35:06.127Z,18.07
2018-02-10T17:37:33.684Z,16.83
2018-02-10T17:40:01.976Z,16.10
2018-02-10T17:42:30.305Z,17.00
2018-02-10T17:44:57.836Z,14.47
2018-02-10T17:47:26.195Z,14.23
2018-02-10T17:49:53.746Z,16.23
2018-02-10T17:52:21.300Z,14.77
2018-02-10T17:54:48.816Z,13.73
2018-02-10T17:57:16.449Z,15.10
2018-02-10T17:59:44.010Z,15.20
2018-02-10T18:02:11.547Z,15.17
2018-02-10T18:04:39.138Z,15.60
2018-02-10T18:07:07.465Z,13.80
2018-02-10T18:09:35.001Z,14.63
2018-02-10T18:12:03.314Z,15.03
2018-02-10T18:14:30.982Z,14.37
2018-02-10T18:16:58.532Z,17.87
2018-02-10T18:19:26.930Z,18.57
2018-02-10T18:21:54.492Z,18.97
2018-02-10T18:24:22.015Z,17.57
2018-02-10T18:26:49.537Z,19.17
2018-02-10T18:29:17.922Z,20.80
2018-02-10T18:31:46.232Z,18.43
2018-02-10T18:34:13.798Z,15.87
2018-02-10T18:36:41.391Z,15.80
2018-02-10T18:39:08.892Z,16.53
2018-02-10T18:41:36.439Z,17.07
2018-02-10T18:44:03.959Z,14.53
2018-02-10T18:46:31.489Z,16.70
2018-02-10T18:48:59.009Z,16.33
2018-02-10T18:51:27.314Z,16.60
2018-02-10T18:53:54.905Z,15.70
2018-02-10T18:56:22.516Z,16.23
2018-02-10T18:58:50.037Z,16.23
2018-02-10T19:01:17.807Z,15.07
2018-02-10T19:03:46.148Z,15.97
2018-02-10T19:06:13.664Z,14.83
2018-02-10T19:08:41.990Z,18.77
2018-02-10T19:11:09.531Z,16.87
2018-02-10T19:13:37.061Z,15.53
2018-02-10T19:16:04.585Z,15.07
2018-02-10T19:18:32.113Z,16.63
2018-02-10T19:20:59.631Z,15.40
2018-02-10T19:23:27.256Z,15.70
2018-02-10T19:25:54.820Z,14.87
2018-02-10T19:28:22.405Z,14.77
2018-02-10T19:30:49.934Z,15.13
2018-02-10T19:33:17.503Z,14.80
2018-02-10T19:35:45.020Z,15.80
2018-02-10T19:38:12.580Z,14.67
2018-02-10T19:40:40.145Z,15.40
2018-02-10T19:43:07.700Z,17.23
2018-02-10T19:45:35.261Z,17.03
2018-02-10T19:48:02.849Z,16.13
2018-02-10T19:50:30.396Z,16.13
2018-02-10T19:52:57.998Z,15.43
2018-02-10T19:55:25.528Z,15.57
2018-02-10T19:57:53.441Z,14.20
2018-02-10T20:00:20.961Z,13.50
2018-02-10T20:02:49.415Z,14.40
2018-02-10T20:05:17.028Z,13.83
2018-02-10T20:07:45.375Z,14.17
2018-02-10T20:10:12.914Z,13.10
2018-02-10T20:12:40.503Z,11.27
2018-02-10T20:15:08.592Z,10.67
2018-02-10T20:17:36.137Z,10.03
2018-02-10T20:20:03.842Z,11.43
2018-02-10T20:22:31.677Z,11.60
2018-02-10T20:25:00.083Z,11.63
2018-02-10T20:27:27.696Z,11.47
2018-02-10T20:29:55.278Z,11.83
2018-02-10T20:32:22.826Z,11.67
2018-02-10T20:34:50.400Z,12.23
2018-02-10T20:37:17.930Z,13.73
2018-02-10T20:39:46.262Z,10.67
2018-02-10T20:42:13.901Z,10.93
2018-02-10T20:44:42.221Z,10.63
2018-02-10T20:47:09.945Z,10.87
2018-02-10T20:49:38.285Z,10.67
2018-02-10T20:52:05.832Z,10.33
2018-02-10T20:54:33.487Z,10.67
2018-02-10T20:57:01.773Z,12.47
2018-02-10T20:59:29.395Z,16.37
2018-02-10T21:01:56.936Z,14.30
2018-02-10T21:04:24.472Z,13.93
2018-02-10T21:06:52.034Z,11.83
2018-02-10T21:09:19.588Z,11.03
2018-02-10T21:11:47.148Z,12.13
2018-02-10T21:14:14.681Z,13.13
2018-02-10T21:16:42.205Z,14.37
2018-02-10T21:19:09.757Z,12.37
2018-02-10T21:21:37.351Z,12.67
2018-02-10T21:24:04.946Z,12.03
2018-02-10T21:26:33.371Z,11.10
2018-02-10T21:29:01.687Z,11.13
2018-02-10T21:31:29.248Z,11.97
2018-02-10T21:33:56.837Z,16.30
2018-02-10T21:36:24.355Z,11.33
2018-02-10T21:38:52.652Z,12.60
2018-02-10T21:41:20.206Z,10.70
2018-02-10T21:43:47.796Z,11.33
2018-02-10T21:46:15.322Z,11.73
2018-02-10T21:48:42.879Z,9.87
2018-02-10T21:51:10.424Z,10.30
2018-02-10T21:53:38.857Z,10.50
2018-02-10T21:56:06.418Z,10.47
2018-02-10T21:58:34.027Z,9.97
2018-02-10T22:01:01.575Z,13.00
2018-02-10T22:03:29.193Z,10.93
2018-02-10T22:05:56.729Z,9.23
2018-02-10T22:08:24.269Z,9.90
2018-02-10T22:10:51.832Z,9.87
2018-02-10T22:13:20.154Z,8.67
2018-02-10T22:15:47.683Z,8.90
2018-02-10T22:18:16.042Z,8.13
2018-02-10T22:20:43.561Z,9.90
2018-02-10T22:23:11.128Z,8.27
2018-02-10T22:25:39.397Z,8.50
2018-02-10T22:28:07.684Z,9.17
2018-02-10T22:30:35.978Z,8.80
2018-02-10T22:33:04.272Z,7.77
2018-02-10T22:35:32.795Z,8.03
2018-02-10T22:38:00.384Z,9.17
2018-02-10T22:40:27.982Z,8.40
2018-02-10T22:42:55.553Z,8.40
2018-02-10T22:45:23.098Z,8.80
2018-02-10T22:47:50.632Z,9.20
2018-02-10T22:50:18.184Z,8.57
2018-02-10T22:52:46.494Z,8.23
2018-02-10T22:55:14.807Z,8.93
2018-02-10T22:57:42.331Z,8.60
2018-02-10T23:00:09.849Z,10.23
2018-02-10T23:02:37.435Z,9.73
2018-02-10T23:05:04.984Z,9.60
2018-02-10T23:07:32.592Z,8.30
2018-02-10T23:10:00.106Z,9.80
2018-02-10T23:12:28.422Z,7.90
2018-02-10T23:14:55.939Z,7.80
2018-02-10T23:17:23.488Z,8.30
2018-02-10T23:19:51.045Z,9.20
2018-02-10T23:22:18.581Z,9.23
2018-02-10T23:24:47.076Z,8.33
2018-02-10T23:27:15.476Z,9.23
2018-02-10T23:29:43.019Z,9.83
2018-02-10T23:32:10.599Z,9.17
2018-02-10T23:34:38.146Z,9.77
2018-02-10T23:37:05.753Z,10.00
2018-02-10T23:39:33.365Z,10.33
2018-02-10T23:42:00.993Z,9.93
2018-02-10T23:44:28.533Z,9.90
2018-02-10T23:46:56.068Z,9.60
2018-02-10T23:49:23.622Z,9.70
2018-02-10T23:51:51.932Z,10.17
2018-02-10T23:54:19.566Z,9.63
2018-02-10T23:56:47.146Z,11.10
2018-02-10T23:59:14.660Z,10.10
